createdAt,value
2023-02-15T00:01:53.074Z,1.60
2023-02-15T00:04:22.397Z,1.60
2023-02-15T00:06:49.858Z,1.50
2023-02-15T00:09:16.884Z,1.50
2023-02-15T00:11:46.102Z,1.60
2023-02-15T00:14:20.248Z,1.50
2023-02-15T00:16:47.256Z,1.50
2023-02-15T00:19:16.741Z,1.50
2023-02-15T00:21:44.368Z,1.50
2023-02-15T00:24:13.867Z,1.50
2023-02-15T00:26:42.489Z,1.50
2023-02-15T00:29:10.341Z,1.50
2023-02-15T00:31:38.086Z,1.50
2023-02-15T00:34:07.015Z,1.50
2023-02-15T00:36:34.147Z,1.50
2023-02-15T00:39:01.157Z,1.50
2023-02-15T00:41:28.263Z,1.50
2023-02-15T00:43:55.250Z,1.50
2023-02-15T00:46:22.426Z,1.50
2023-02-15T00:48:49.912Z,1.50
2023-02-15T00:51:18.339Z,1.50
2023-02-15T00:53:45.560Z,1.50
2023-02-15T00:56:12.860Z,1.50
2023-02-15T00:58:39.977Z,1.40
2023-02-15T01:01:10.479Z,1.40
2023-02-15T01:03:37.775Z,1.30
2023-02-15T01:06:05.840Z,1.40
2023-02-15T01:08:33.133Z,1.40
2023-02-15T01:11:06.352Z,1.40
2023-02-15T01:13:33.714Z,1.40
2023-02-15T01:16:01.173Z,1.40
2023-02-15T01:18:28.598Z,1.40
2023-02-15T01:20:57.380Z,1.30
2023-02-15T01:23:24.814Z,1.30
2023-02-15T01:25:51.911Z,1.30
2023-02-15T01:28:19.039Z,1.20
2023-02-15T01:30:46.157Z,1.30
2023-02-15T01:33:19.015Z,1.30
2023-02-15T01:35:47.300Z,1.30
2023-02-15T01:38:15.632Z,1.20
2023-02-15T01:40:43.147Z,1.30
2023-02-15T01:43:13.733Z,1.30
2023-02-15T01:45:41.290Z,1.20
2023-02-15T01:48:22.191Z,1.10
2023-02-15T01:50:57.175Z,1.10
2023-02-15T01:53:31.158Z,1.10
2023-02-15T01:56:10.342Z,1.00
2023-02-15T01:58:38.318Z,1.00
2023-02-15T02:01:08.748Z,1.00
2023-02-15T02:03:55.597Z,1.10
2023-02-15T02:06:24.670Z,1.10
2023-02-15T02:08:54.080Z,1.00
2023-02-15T02:11:21.580Z,1.00
2023-02-15T02:13:49.456Z,1.10
2023-02-15T02:16:22.836Z,1.00
2023-02-15T02:19:23.603Z,1.00
2023-02-15T02:22:05.758Z,0.90
2023-02-15T02:25:08.256Z,0.90
2023-02-15T02:27:57.045Z,0.90
2023-02-15T02:31:08.961Z,0.80
2023-02-15T02:33:46.870Z,0.80
2023-02-15T02:36:50.509Z,0.80
2023-02-15T02:39:40.532Z,0.80
2023-02-15T02:42:15.951Z,0.80
2023-02-15T02:44:46.021Z,0.70
2023-02-15T02:47:30.138Z,0.70
2023-02-15T02:50:07.419Z,0.80
2023-02-15T02:52:44.225Z,0.90
2023-02-15T02:55:25.988Z,0.90
2023-02-15T02:57:59.058Z,0.80
2023-02-15T03:00:31.470Z,0.80
2023-02-15T03:03:06.260Z,0.70
2023-02-15T03:05:38.794Z,0.70
2023-02-15T03:08:11.125Z,0.70
2023-02-15T03:10:41.612Z,0.60
2023-02-15T03:13:09.811Z,0.60
2023-02-15T03:15:59.506Z,0.60
2023-02-15T03:18:33.613Z,0.60
2023-02-15T03:21:02.668Z,0.60
2023-02-15T03:23:31.711Z,0.60
2023-02-15T03:26:02.785Z,0.60
2023-02-15T03:29:00.077Z,0.50
2023-02-15T03:31:31.508Z,0.60
2023-02-15T03:34:07.998Z,0.50
2023-02-15T03:36:50.032Z,0.50
2023-02-15T03:39:35.183Z,0.50
2023-02-15T03:42:27.945Z,0.50
2023-02-15T03:45:00.624Z,0.50
2023-02-15T03:47:32.840Z,0.50
2023-02-15T03:50:38.698Z,0.50
2023-02-15T03:53:10.368Z,0.50
2023-02-15T03:55:37.709Z,0.50
2023-02-15T03:58:24.000Z,0.40
2023-02-15T04:01:16.451Z,0.40
2023-02-15T04:03:52.995Z,0.40
2023-02-15T04:06:20.087Z,0.40
2023-02-15T04:09:05.562Z,0.40
2023-02-15T04:11:32.634Z,0.40
2023-02-15T04:13:59.687Z,0.30
2023-02-15T04:16:28.315Z,0.20
2023-02-15T04:19:14.954Z,0.20
2023-02-15T04:22:00.311Z,0.20
2023-02-15T04:24:45.683Z,0.20
2023-02-15T04:27:12.730Z,0.30
2023-02-15T04:29:39.776Z,0.20
2023-02-15T04:32:07.865Z,0.30
2023-02-15T04:34:35.024Z,0.20
2023-02-15T04:37:02.059Z,0.10
2023-02-15T04:39:29.189Z,0.10
2023-02-15T04:41:56.243Z,0.00
2023-02-15T04:44:23.307Z,0.00
2023-02-15T04:46:50.337Z,0.10
2023-02-15T04:49:17.411Z,0.10
2023-02-15T04:51:44.513Z,0.20
2023-02-15T04:54:11.523Z,0.20
2023-02-15T04:56:40.044Z,0.20
2023-02-15T04:59:07.233Z,0.20
2023-02-15T05:01:34.286Z,0.10
2023-02-15T05:04:01.446Z,0.00
2023-02-15T05:06:28.564Z,0.00
2023-02-15T05:08:55.559Z,0.00
2023-02-15T05:11:22.863Z,-0.10
2023-02-15T05:13:49.934Z,0.00
2023-02-15T05:16:17.064Z,0.00
2023-02-15T05:18:44.138Z,0.00
2023-02-15T05:21:11.404Z,0.10
2023-02-15T05:23:38.511Z,0.10
2023-02-15T05:26:24.278Z,0.10
2023-02-15T05:28:51.336Z,0.10
2023-02-15T05:31:20.374Z,0.00
2023-02-15T05:33:47.728Z,0.00
2023-02-15T05:36:15.123Z,-0.10
2023-02-15T05:38:42.456Z,-0.10
2023-02-15T05:41:11.489Z,-0.10
2023-02-15T05:43:39.166Z,-0.10
2023-02-15T05:46:07.479Z,0.00
2023-02-15T05:48:36.571Z,-0.10
2023-02-15T05:51:14.396Z,-0.10
2023-02-15T05:53:41.926Z,-0.10
2023-02-15T05:56:11.621Z,-0.20
2023-02-15T05:58:40.945Z,-0.20
2023-02-15T06:01:12.731Z,-0.20
2023-02-15T06:03:40.525Z,-0.10
2023-02-15T06:06:08.007Z,-0.20
2023-02-15T06:08:36.687Z,-0.30
2023-02-15T06:11:04.562Z,-0.30
2023-02-15T06:13:32.535Z,-0.30
2023-02-15T06:16:00.161Z,-0.30
2023-02-15T06:18:27.538Z,-0.20
2023-02-15T06:20:54.644Z,-0.20
2023-02-15T06:23:21.751Z,-0.20
2023-02-15T06:25:48.812Z,-0.30
2023-02-15T06:28:15.895Z,-0.30
2023-02-15T06:30:42.988Z,-0.40
2023-02-15T06:33:10.093Z,-0.40
2023-02-15T06:35:37.189Z,-0.40
2023-02-15T06:38:05.000Z,-0.40
2023-02-15T06:40:32.047Z,-0.40
2023-02-15T06:42:59.129Z,-0.50
2023-02-15T06:45:26.123Z,-0.40
2023-02-15T06:47:53.201Z,-0.40
2023-02-15T06:50:20.444Z,-0.40
2023-02-15T06:52:47.527Z,-0.30
2023-02-15T06:55:14.553Z,-0.30
2023-02-15T06:57:42.124Z,-0.30
2023-02-15T07:00:09.648Z,-0.20
2023-02-15T07:02:36.742Z,-0.20
2023-02-15T07:05:06.281Z,-0.30
2023-02-15T07:07:33.585Z,-0.30
2023-02-15T07:10:00.645Z,-0.20
2023-02-15T07:12:42.605Z,-0.20
2023-02-15T07:15:12.168Z,-0.20
2023-02-15T07:17:39.742Z,-0.20
2023-02-15T07:20:13.131Z,-0.20
2023-02-15T07:22:40.482Z,-0.10
2023-02-15T07:25:09.705Z,-0.10
2023-02-15T07:27:38.834Z,0.00
2023-02-15T07:30:08.213Z,0.00
2023-02-15T07:32:35.647Z,0.00
2023-02-15T07:35:03.177Z,0.10
2023-02-15T07:37:30.261Z,0.10
2023-02-15T07:39:57.581Z,0.20
2023-02-15T07:42:24.892Z,0.20
2023-02-15T07:44:53.994Z,0.30
2023-02-15T07:47:21.068Z,0.30
2023-02-15T07:49:50.473Z,0.30
2023-02-15T07:52:17.523Z,0.40
2023-02-15T07:54:44.538Z,0.40
2023-02-15T07:57:11.570Z,0.50
2023-02-15T07:59:38.635Z,0.50
2023-02-15T08:02:11.561Z,0.50
2023-02-15T08:04:38.845Z,0.60
2023-02-15T08:07:06.281Z,0.70
2023-02-15T08:09:33.605Z,0.70
2023-02-15T08:12:00.864Z,0.70
2023-02-15T08:14:29.075Z,0.80
2023-02-15T08:17:00.629Z,0.80
2023-02-15T08:19:36.876Z,0.80
2023-02-15T08:22:06.842Z,0.90
2023-02-15T08:24:38.546Z,1.00
2023-02-15T08:27:09.957Z,1.00
2023-02-15T08:29:38.992Z,1.10
2023-02-15T08:32:11.510Z,1.10
2023-02-15T08:34:42.245Z,1.10
2023-02-15T08:37:09.612Z,1.20
2023-02-15T08:39:36.902Z,1.20
2023-02-15T08:42:04.991Z,1.30
2023-02-15T08:44:32.417Z,1.30
2023-02-15T08:47:05.139Z,1.40
2023-02-15T08:49:32.899Z,1.50
2023-02-15T08:52:00.973Z,1.50
2023-02-15T08:54:28.200Z,1.60
2023-02-15T08:56:55.452Z,1.70
2023-02-15T08:59:24.606Z,1.70
2023-02-15T09:01:54.090Z,1.80
2023-02-15T09:04:22.796Z,1.80
2023-02-15T09:06:51.015Z,1.90
2023-02-15T09:09:19.556Z,2.00
2023-02-15T09:11:55.831Z,2.00
2023-02-15T09:14:27.571Z,2.10
2023-02-15T09:16:55.290Z,2.30
2023-02-15T09:19:23.409Z,2.30
2023-02-15T09:21:50.841Z,2.40
2023-02-15T09:24:19.152Z,2.40
2023-02-15T09:26:48.409Z,2.50
2023-02-15T09:29:17.800Z,2.50
2023-02-15T09:31:50.180Z,2.40
2023-02-15T09:34:19.931Z,2.50
2023-02-15T09:36:48.002Z,2.60
2023-02-15T09:39:18.343Z,2.70
2023-02-15T09:42:05.894Z,2.70
2023-02-15T09:44:42.393Z,2.80
2023-02-15T09:47:23.618Z,2.90
2023-02-15T09:50:03.455Z,3.00
2023-02-15T09:52:33.543Z,3.10
2023-02-15T09:55:15.993Z,3.10
2023-02-15T09:57:58.094Z,3.10
2023-02-15T10:00:50.729Z,3.20
2023-02-15T10:03:35.823Z,3.30
2023-02-15T10:06:22.168Z,3.40
2023-02-15T10:09:26.372Z,3.40
2023-02-15T10:12:11.765Z,3.50
2023-02-15T10:15:12.822Z,3.70
2023-02-15T10:18:17.181Z,3.80
2023-02-15T10:21:11.461Z,3.80
2023-02-15T10:24:00.403Z,3.90
2023-02-15T10:26:45.244Z,4.00
2023-02-15T10:29:36.007Z,4.10
2023-02-15T10:32:23.092Z,4.20
2023-02-15T10:35:18.718Z,4.30
2023-02-15T10:38:18.418Z,4.40
2023-02-15T10:41:04.830Z,4.60
2023-02-15T10:43:51.014Z,4.70
2023-02-15T10:46:28.134Z,4.90
2023-02-15T10:49:13.673Z,4.90
2023-02-15T10:52:11.457Z,5.10
2023-02-15T10:54:44.691Z,5.20
2023-02-15T10:57:21.552Z,5.20
2023-02-15T11:00:12.876Z,5.30
2023-02-15T11:03:02.562Z,5.40
2023-02-15T11:05:44.758Z,5.50
2023-02-15T11:08:15.220Z,5.60
2023-02-15T11:11:10.313Z,5.70
2023-02-15T11:13:48.723Z,5.90
2023-02-15T11:16:30.727Z,6.10
2023-02-15T11:19:10.282Z,6.20
2023-02-15T11:21:45.474Z,6.20
2023-02-15T11:24:15.878Z,6.20
2023-02-15T11:26:47.885Z,6.20
2023-02-15T11:29:26.610Z,6.30
2023-02-15T11:32:00.999Z,6.60
2023-02-15T11:34:34.842Z,6.80
2023-02-15T11:37:16.903Z,6.70
2023-02-15T11:39:45.521Z,6.80
2023-02-15T11:42:16.651Z,7.00
2023-02-15T11:44:57.950Z,7.10
2023-02-15T11:47:25.354Z,7.20
2023-02-15T11:49:52.455Z,7.30
2023-02-15T11:52:20.067Z,7.70
2023-02-15T11:54:53.513Z,7.80
2023-02-15T11:57:41.522Z,7.90
2023-02-15T12:00:16.093Z,8.00
2023-02-15T12:02:51.570Z,8.30
2023-02-15T12:05:20.841Z,8.60
2023-02-15T12:07:59.044Z,8.90
2023-02-15T12:11:06.559Z,8.90
2023-02-15T12:13:33.930Z,9.00
2023-02-15T12:16:09.330Z,9.30
2023-02-15T12:18:41.595Z,9.70
2023-02-15T12:21:15.989Z,9.60
2023-02-15T12:23:49.589Z,9.80
2023-02-15T12:26:35.854Z,10.10
2023-02-15T12:29:14.222Z,10.40
2023-02-15T12:31:46.044Z,10.70
2023-02-15T12:34:26.331Z,11.00
2023-02-15T12:36:59.117Z,10.90
2023-02-15T12:39:31.766Z,11.00
2023-02-15T12:42:03.066Z,11.10
2023-02-15T12:44:35.479Z,10.90
2023-02-15T12:47:17.508Z,11.00
2023-02-15T12:49:48.693Z,10.80
2023-02-15T12:52:18.875Z,11.10
2023-02-15T12:54:45.998Z,11.00
2023-02-15T12:57:26.386Z,11.00
2023-02-15T12:59:59.444Z,10.90
2023-02-15T13:02:37.586Z,10.90
2023-02-15T13:05:19.533Z,11.30
2023-02-15T13:07:56.262Z,11.20
2023-02-15T13:10:25.719Z,11.20
2023-02-15T13:12:55.337Z,11.10
2023-02-15T13:15:35.643Z,11.50
2023-02-15T13:18:03.881Z,11.90
2023-02-15T13:20:32.886Z,11.90
2023-02-15T13:23:06.232Z,11.90
2023-02-15T13:25:41.872Z,11.60
2023-02-15T13:28:15.678Z,11.30
2023-02-15T13:30:50.208Z,11.40
2023-02-15T13:33:38.089Z,11.70
2023-02-15T13:36:21.795Z,11.90
2023-02-15T13:39:03.472Z,12.20
2023-02-15T13:41:45.498Z,12.30
2023-02-15T13:44:39.752Z,12.20
2023-02-15T13:47:25.346Z,11.90
2023-02-15T13:50:02.030Z,11.80
2023-02-15T13:52:31.023Z,12.00
2023-02-15T13:55:25.094Z,12.00
2023-02-15T13:58:23.318Z,11.90
2023-02-15T14:01:23.816Z,12.00
2023-02-15T14:04:12.238Z,12.00
2023-02-15T14:06:58.611Z,12.00
2023-02-15T14:09:56.341Z,12.30
2023-02-15T14:12:23.299Z,12.30
2023-02-15T14:15:13.434Z,12.40
2023-02-15T14:17:49.038Z,12.40
2023-02-15T14:20:54.652Z,12.30
2023-02-15T14:23:50.247Z,12.20
2023-02-15T14:26:55.908Z,12.20
2023-02-15T14:29:54.680Z,12.20
2023-02-15T14:32:42.200Z,12.40
2023-02-15T14:35:17.975Z,11.90
2023-02-15T14:38:06.926Z,11.80
2023-02-15T14:41:04.273Z,11.90
2023-02-15T14:43:59.598Z,11.60
2023-02-15T14:46:45.182Z,11.60
2023-02-15T14:49:34.085Z,11.70
2023-02-15T14:52:08.278Z,11.60
2023-02-15T14:54:35.098Z,11.30
2023-02-15T14:57:02.351Z,11.20
2023-02-15T14:59:59.903Z,11.10
2023-02-15T15:02:47.862Z,11.00
2023-02-15T15:05:34.462Z,10.80
2023-02-15T15:08:03.736Z,10.70
2023-02-15T15:10:38.340Z,10.60
2023-02-15T15:13:33.628Z,10.70
2023-02-15T15:16:32.627Z,10.60
2023-02-15T15:19:00.882Z,10.50
2023-02-15T15:21:49.688Z,10.40
2023-02-15T15:24:38.848Z,10.30
2023-02-15T15:27:41.873Z,10.10
2023-02-15T15:30:15.273Z,10.00
2023-02-15T15:32:46.673Z,9.90
2023-02-15T15:36:00.945Z,9.80
2023-02-15T15:39:00.451Z,9.60
2023-02-15T15:41:46.656Z,9.60
2023-02-15T15:44:44.552Z,9.40
2023-02-15T15:47:44.857Z,9.40
2023-02-15T15:50:21.294Z,9.30
2023-02-15T15:52:56.040Z,9.20
2023-02-15T15:55:28.040Z,9.10
2023-02-15T15:57:59.602Z,9.00
2023-02-15T16:00:50.598Z,9.00
2023-02-15T16:03:29.244Z,8.90
2023-02-15T16:05:57.469Z,8.80
2023-02-15T16:08:38.461Z,8.70
2023-02-15T16:11:23.964Z,8.70
2023-02-15T16:13:53.119Z,8.60
2023-02-15T16:16:29.579Z,8.60
2023-02-15T16:19:00.790Z,8.50
2023-02-15T16:21:35.692Z,8.30
2023-02-15T16:24:14.972Z,8.30
2023-02-15T16:27:08.305Z,8.20
2023-02-15T16:29:35.865Z,8.10
2023-02-15T16:32:06.869Z,8.00
2023-02-15T16:34:34.532Z,7.90
2023-02-15T16:37:16.015Z,7.80
2023-02-15T16:39:44.615Z,7.70
2023-02-15T16:42:13.522Z,7.60
2023-02-15T16:44:41.607Z,7.60
2023-02-15T16:47:31.672Z,7.50
2023-02-15T16:50:02.419Z,7.40
2023-02-15T16:52:30.158Z,7.40
2023-02-15T16:55:04.559Z,7.30
2023-02-15T16:57:35.487Z,7.20
2023-02-15T17:00:07.270Z,7.20
2023-02-15T17:02:56.478Z,7.00
2023-02-15T17:05:23.843Z,7.00
2023-02-15T17:08:07.174Z,7.00
2023-02-15T17:10:37.603Z,6.90
2023-02-15T17:13:11.918Z,6.80
2023-02-15T17:15:40.149Z,6.80
2023-02-15T17:18:20.736Z,6.80
2023-02-15T17:20:49.679Z,6.70
2023-02-15T17:23:42.880Z,6.60
2023-02-15T17:26:44.166Z,6.60
2023-02-15T17:29:33.989Z,6.60
2023-02-15T17:32:03.017Z,6.50
2023-02-15T17:34:45.685Z,6.50
2023-02-15T17:37:31.017Z,6.40
2023-02-15T17:40:00.628Z,6.40
2023-02-15T17:42:27.834Z,6.40
2023-02-15T17:44:54.836Z,6.30
2023-02-15T17:47:26.063Z,6.30
2023-02-15T17:49:55.250Z,6.20
2023-02-15T17:52:22.530Z,6.20
2023-02-15T17:55:07.966Z,6.20
2023-02-15T17:57:35.113Z,6.10
2023-02-15T18:00:21.999Z,6.00
2023-02-15T18:03:07.538Z,6.00
2023-02-15T18:05:53.098Z,6.00
2023-02-15T18:08:45.418Z,5.90
2023-02-15T18:11:31.725Z,5.80
2023-02-15T18:14:02.020Z,5.80
2023-02-15T18:16:43.606Z,5.90
2023-02-15T18:19:16.676Z,5.90
2023-02-15T18:21:45.120Z,5.90
2023-02-15T18:24:30.575Z,5.80
2023-02-15T18:26:57.705Z,5.80
2023-02-15T18:29:24.784Z,5.80
2023-02-15T18:31:57.983Z,5.70
2023-02-15T18:34:35.967Z,5.70
2023-02-15T18:37:06.097Z,5.70
2023-02-15T18:39:47.846Z,5.70
2023-02-15T18:42:29.256Z,5.60
2023-02-15T18:45:01.180Z,5.60
2023-02-15T18:47:28.167Z,5.60
2023-02-15T18:49:55.370Z,5.60
2023-02-15T18:52:24.883Z,5.60
2023-02-15T18:54:55.309Z,5.50
2023-02-15T18:57:22.409Z,5.50
2023-02-15T18:59:49.473Z,5.40
2023-02-15T19:02:19.226Z,5.40
2023-02-15T19:04:50.996Z,5.40
2023-02-15T19:07:25.010Z,5.30
2023-02-15T19:09:56.176Z,5.30
2023-02-15T19:12:23.463Z,5.30
2023-02-15T19:14:53.112Z,5.10
2023-02-15T19:17:21.912Z,5.00
2023-02-15T19:19:50.474Z,4.90
2023-02-15T19:22:25.229Z,4.90
2023-02-15T19:24:54.052Z,4.80
2023-02-15T19:27:26.438Z,4.70
2023-02-15T19:29:55.061Z,4.70
2023-02-15T19:32:22.326Z,4.70
2023-02-15T19:34:49.403Z,4.60
2023-02-15T19:37:34.612Z,4.40
2023-02-15T19:40:04.951Z,4.40
2023-02-15T19:42:33.321Z,4.40
2023-02-15T19:45:00.790Z,4.40
2023-02-15T19:47:31.052Z,4.40
2023-02-15T19:50:03.785Z,4.20
2023-02-15T19:52:31.130Z,4.10
2023-02-15T19:54:58.189Z,4.10
2023-02-15T19:57:25.311Z,4.10
2023-02-15T19:59:52.542Z,4.00
2023-02-15T20:02:20.413Z,4.00
2023-02-15T20:04:47.607Z,4.00
2023-02-15T20:07:27.774Z,4.00
2023-02-15T20:09:55.619Z,4.00
2023-02-15T20:12:25.462Z,4.00
2023-02-15T20:14:54.535Z,4.00
2023-02-15T20:17:21.685Z,4.00
2023-02-15T20:19:48.870Z,4.10
2023-02-15T20:22:27.807Z,4.00
2023-02-15T20:24:57.125Z,4.00
2023-02-15T20:27:26.622Z,4.10
2023-02-15T20:29:57.004Z,4.10
2023-02-15T20:32:24.652Z,4.10
2023-02-15T20:34:53.762Z,4.10
2023-02-15T20:37:29.072Z,4.00
2023-02-15T20:39:56.660Z,4.00
2023-02-15T20:42:23.954Z,4.00
2023-02-15T20:44:52.294Z,4.00
2023-02-15T20:47:20.340Z,3.90
2023-02-15T20:49:47.471Z,3.90
2023-02-15T20:52:21.407Z,3.90
2023-02-15T20:54:49.451Z,3.80
2023-02-15T20:57:19.885Z,3.80
2023-02-15T20:59:47.018Z,3.80
2023-02-15T21:02:23.616Z,3.80
2023-02-15T21:04:53.318Z,3.80
2023-02-15T21:07:22.394Z,3.80
2023-02-15T21:09:55.152Z,3.70
2023-02-15T21:12:24.375Z,3.70
2023-02-15T21:14:51.528Z,3.60
2023-02-15T21:17:20.021Z,3.60
2023-02-15T21:19:47.138Z,3.60
2023-02-15T21:22:15.802Z,3.60
2023-02-15T21:24:51.957Z,3.60
2023-02-15T21:27:19.300Z,3.50
2023-02-15T21:29:46.330Z,3.50
2023-02-15T21:32:13.511Z,3.50
2023-02-15T21:34:41.007Z,3.50
2023-02-15T21:37:28.029Z,3.50
2023-02-15T21:39:55.395Z,3.50
2023-02-15T21:42:41.225Z,3.40
2023-02-15T21:45:37.438Z,3.30
2023-02-15T21:48:05.280Z,3.20
2023-02-15T21:50:50.854Z,3.10
2023-02-15T21:53:30.407Z,3.00
2023-02-15T21:56:01.862Z,2.90
2023-02-15T21:58:32.657Z,2.90
2023-02-15T22:01:01.008Z,2.90
2023-02-15T22:03:33.582Z,2.90
2023-02-15T22:06:01.062Z,3.10
2023-02-15T22:08:28.163Z,3.10
2023-02-15T22:10:56.750Z,3.00
2023-02-15T22:13:31.712Z,2.90
2023-02-15T22:15:59.401Z,3.00
2023-02-15T22:18:33.922Z,3.00
2023-02-15T22:21:02.899Z,2.90
2023-02-15T22:23:30.448Z,2.80
2023-02-15T22:26:22.740Z,2.70
2023-02-15T22:28:50.183Z,2.50
2023-02-15T22:31:22.380Z,2.40
2023-02-15T22:33:51.347Z,2.30
2023-02-15T22:36:28.913Z,2.30
2023-02-15T22:38:57.233Z,2.30
2023-02-15T22:41:30.898Z,2.20
2023-02-15T22:43:58.307Z,2.40
2023-02-15T22:46:26.715Z,2.40
2023-02-15T22:48:54.109Z,2.20
2023-02-15T22:51:24.062Z,2.30
2023-02-15T22:53:54.112Z,2.10
2023-02-15T22:56:46.872Z,2.30
2023-02-15T22:59:34.410Z,2.40
2023-02-15T23:02:03.619Z,2.20
2023-02-15T23:04:30.879Z,2.20
2023-02-15T23:07:00.874Z,2.30
2023-02-15T23:09:28.217Z,2.40
2023-02-15T23:11:55.519Z,2.50
2023-02-15T23:14:23.105Z,2.60
2023-02-15T23:16:52.436Z,2.70
2023-02-15T23:19:21.750Z,2.60
2023-02-15T23:21:49.105Z,2.50
2023-02-15T23:24:29.517Z,2.50
2023-02-15T23:27:20.229Z,2.40
2023-02-15T23:29:47.502Z,2.40
2023-02-15T23:32:15.509Z,2.40
2023-02-15T23:34:43.223Z,2.50
2023-02-15T23:37:14.518Z,2.50
2023-02-15T23:40:00.328Z,2.60
2023-02-15T23:42:30.822Z,2.50
2023-02-15T23:44:58.497Z,2.40
2023-02-15T23:48:03.212Z,2.40
2023-02-15T23:50:30.900Z,2.30
2023-02-15T23:52:58.404Z,2.20
2023-02-15T23:55:37.270Z,2.20
2023-02-15T23:58:06.558Z,2.10
